createdAt,value
2023-02-02T00:01:17.909Z,92.04
2023-02-02T00:06:11.202Z,91.91
2023-02-02T00:11:06.357Z,92.12
2023-02-02T00:16:25.592Z,92.49
2023-02-02T00:21:18.165Z,92.79
2023-02-02T00:26:14.992Z,92.51
2023-02-02T00:31:09.075Z,92.47
2023-02-02T00:36:03.328Z,92.69
2023-02-02T00:41:13.386Z,92.58
2023-02-02T00:46:10.729Z,92.42
2023-02-02T00:51:03.759Z,92.20
2023-02-02T00:55:55.838Z,92.77
2023-02-02T01:00:47.265Z,92.91
2023-02-02T01:05:40.603Z,92.88
2023-02-02T01:10:31.718Z,93.17
2023-02-02T01:15:24.269Z,93.45
2023-02-02T01:20:22.329Z,93.49
2023-02-02T01:25:19.490Z,94.08
2023-02-02T01:30:22.804Z,93.72
2023-02-02T01:35:16.494Z,93.76
2023-02-02T01:40:11.549Z,93.41
2023-02-02T01:45:21.715Z,93.63
2023-02-02T01:50:20.327Z,93.49
2023-02-02T01:55:25.776Z,93.36
2023-02-02T02:00:27.546Z,93.48
2023-02-02T02:05:27.196Z,93.06
2023-02-02T02:10:19.657Z,93.14
2023-02-02T02:15:25.170Z,93.39
2023-02-02T02:21:07.678Z,92.84
2023-02-02T02:26:39.566Z,92.67
2023-02-02T02:32:04.201Z,92.45
2023-02-02T02:37:14.345Z,92.22
2023-02-02T02:42:13.331Z,92.53
2023-02-02T02:47:05.344Z,92.51
2023-02-02T02:52:00.253Z,92.57
2023-02-02T02:57:23.865Z,92.72
2023-02-02T03:02:34.166Z,92.74
2023-02-02T03:07:34.279Z,93.10
2023-02-02T03:12:25.880Z,93.23
2023-02-02T03:17:16.662Z,93.64
2023-02-02T03:22:10.564Z,93.66
2023-02-02T03:27:10.214Z,93.15
2023-02-02T03:32:01.611Z,93.35
2023-02-02T03:36:55.241Z,94.02
2023-02-02T03:41:54.488Z,93.96
2023-02-02T03:46:49.063Z,94.35
2023-02-02T03:51:40.699Z,94.71
2023-02-02T03:56:33.276Z,95.15
2023-02-02T04:01:33.106Z,93.23
2023-02-02T04:06:29.167Z,92.22
2023-02-02T04:11:22.842Z,94.26
2023-02-02T04:16:16.742Z,94.33
2023-02-02T04:21:13.915Z,93.27
2023-02-02T04:26:10.852Z,93.52
2023-02-02T04:31:04.248Z,93.17
2023-02-02T04:35:57.879Z,95.31
2023-02-02T04:40:53.268Z,93.31
2023-02-02T04:45:50.557Z,94.23
2023-02-02T04:50:41.710Z,93.77
2023-02-02T04:55:32.248Z,93.54
2023-02-02T05:00:27.262Z,92.92
2023-02-02T05:05:23.953Z,93.08
2023-02-02T05:10:18.200Z,92.94
2023-02-02T05:15:10.854Z,93.13
2023-02-02T05:20:04.656Z,93.63
2023-02-02T05:24:59.642Z,93.22
2023-02-02T05:29:53.593Z,93.40
2023-02-02T05:34:44.915Z,93.14
2023-02-02T05:39:38.376Z,93.65
2023-02-02T05:44:31.664Z,93.27
2023-02-02T05:49:22.932Z,93.61
2023-02-02T05:54:17.997Z,93.51
2023-02-02T05:59:10.340Z,93.56
2023-02-02T06:04:04.118Z,93.43
2023-02-02T06:08:55.189Z,93.86
2023-02-02T06:13:47.145Z,93.80
2023-02-02T06:18:39.199Z,93.85
2023-02-02T06:23:36.422Z,94.50
2023-02-02T06:28:27.749Z,94.43
2023-02-02T06:33:21.730Z,93.86
2023-02-02T06:38:13.571Z,93.79
2023-02-02T06:43:09.596Z,93.28
2023-02-02T06:48:05.938Z,93.38
2023-02-02T06:53:05.316Z,93.59
2023-02-02T06:58:01.681Z,94.11
2023-02-02T07:02:59.511Z,94.77
2023-02-02T07:07:52.551Z,94.86
2023-02-02T07:12:43.817Z,94.96
2023-02-02T07:17:36.425Z,94.99
2023-02-02T07:22:29.476Z,94.81
2023-02-02T07:27:19.463Z,94.22
2023-02-02T07:32:09.973Z,94.54
2023-02-02T07:37:02.012Z,94.03
2023-02-02T07:42:03.315Z,93.82
2023-02-02T07:47:02.839Z,93.78
2023-02-02T07:51:56.434Z,93.68
2023-02-02T07:56:47.607Z,93.56
2023-02-02T08:01:47.398Z,93.19
2023-02-02T08:06:43.179Z,92.67
2023-02-02T08:11:38.947Z,92.84
2023-02-02T08:16:30.423Z,92.65
2023-02-02T08:21:24.992Z,92.67
2023-02-02T08:26:20.657Z,92.57
2023-02-02T08:31:14.159Z,92.46
2023-02-02T08:36:07.965Z,92.20
2023-02-02T08:41:08.970Z,91.86
2023-02-02T08:46:05.519Z,91.87
2023-02-02T08:50:57.997Z,91.65
2023-02-02T08:55:49.342Z,91.15
2023-02-02T09:00:43.126Z,91.01
2023-02-02T09:05:38.975Z,91.28
2023-02-02T09:10:34.402Z,91.63
2023-02-02T09:15:26.510Z,91.84
2023-02-02T09:20:22.537Z,91.57
2023-02-02T09:25:17.252Z,90.97
2023-02-02T09:30:11.062Z,91.37
2023-02-02T09:35:05.710Z,90.97
2023-02-02T09:39:59.616Z,91.47
2023-02-02T09:45:05.641Z,90.82
2023-02-02T09:50:04.132Z,90.97
2023-02-02T09:55:01.761Z,90.93
2023-02-02T09:59:56.464Z,89.69
2023-02-02T10:04:52.573Z,86.32
2023-02-02T10:09:50.981Z,85.40
2023-02-02T10:14:52.122Z,84.78
2023-02-02T10:19:45.836Z,84.64
2023-02-02T10:24:40.687Z,84.10
2023-02-02T10:29:49.326Z,84.01
2023-02-02T10:35:12.611Z,83.37
2023-02-02T10:40:27.174Z,83.97
2023-02-02T10:45:22.187Z,83.63
2023-02-02T10:50:29.406Z,83.55
2023-02-02T10:55:30.387Z,83.46
2023-02-02T11:00:27.079Z,83.41
2023-02-02T11:05:41.767Z,83.26
2023-02-02T11:10:38.113Z,83.45
2023-02-02T11:15:34.105Z,83.50
2023-02-02T11:20:39.072Z,83.92
2023-02-02T11:25:34.306Z,83.54
2023-02-02T11:30:30.947Z,83.04
2023-02-02T11:35:35.291Z,83.42
2023-02-02T11:40:38.545Z,84.33
2023-02-02T11:45:36.820Z,88.86
2023-02-02T11:50:33.195Z,89.98
2023-02-02T11:55:30.725Z,90.24
2023-02-02T12:00:27.813Z,90.16
2023-02-02T12:05:39.098Z,89.71
2023-02-02T12:10:47.699Z,89.69
2023-02-02T12:15:57.703Z,90.60
2023-02-02T12:21:06.964Z,92.49
2023-02-02T12:26:23.628Z,95.00
2023-02-02T12:31:26.773Z,95.80
2023-02-02T12:36:30.527Z,94.79
2023-02-02T12:41:43.537Z,94.91
2023-02-02T12:47:00.491Z,96.01
2023-02-02T12:52:09.438Z,97.29
2023-02-02T12:57:12.097Z,97.71
2023-02-02T13:02:16.408Z,98.30
2023-02-02T13:07:39.017Z,98.11
2023-02-02T13:12:39.449Z,98.98
2023-02-02T13:17:37.042Z,100.00
2023-02-02T13:22:39.070Z,100.00
2023-02-02T13:27:33.839Z,100.00
2023-02-02T13:32:35.238Z,100.00
2023-02-02T13:37:42.322Z,100.00
2023-02-02T13:42:46.013Z,100.00
2023-02-02T13:47:44.090Z,100.00
2023-02-02T13:52:59.954Z,100.00
2023-02-02T13:58:27.377Z,100.00
2023-02-02T14:03:38.835Z,100.00
2023-02-02T14:08:34.619Z,100.00
2023-02-02T14:13:50.077Z,100.00
2023-02-02T14:18:57.595Z,100.00
2023-02-02T14:23:59.031Z,100.00
2023-02-02T14:28:56.049Z,100.00
2023-02-02T14:33:49.067Z,100.00
2023-02-02T14:39:07.145Z,100.00
2023-02-02T14:44:00.748Z,100.00
2023-02-02T14:49:08.893Z,100.00
2023-02-02T14:54:10.566Z,100.00
2023-02-02T14:59:05.278Z,100.00
2023-02-02T15:03:59.845Z,100.00
2023-02-02T15:09:11.752Z,100.00
2023-02-02T15:14:18.107Z,100.00
2023-02-02T15:19:18.821Z,100.00
2023-02-02T15:24:29.113Z,100.00
2023-02-02T15:29:31.700Z,100.00
2023-02-02T15:34:46.701Z,100.00
2023-02-02T15:39:43.027Z,100.00
2023-02-02T15:44:41.325Z,100.00
2023-02-02T15:49:35.633Z,100.00
2023-02-02T15:54:28.300Z,100.00
2023-02-02T15:59:26.562Z,100.00
2023-02-02T16:04:37.644Z,100.00
2023-02-02T16:09:35.792Z,100.00
2023-02-02T16:14:29.143Z,100.00
2023-02-02T16:19:26.796Z,100.00
2023-02-02T16:24:23.907Z,100.00
2023-02-02T16:29:20.269Z,100.00
2023-02-02T16:34:20.162Z,100.00
2023-02-02T16:39:20.654Z,100.00
2023-02-02T16:44:32.694Z,100.00
2023-02-02T16:49:27.260Z,100.00
2023-02-02T16:54:25.713Z,100.00
2023-02-02T16:59:26.535Z,100.00
2023-02-02T17:04:25.317Z,100.00
2023-02-02T17:09:35.103Z,100.00
2023-02-02T17:14:33.452Z,100.00
2023-02-02T17:19:31.316Z,100.00
2023-02-02T17:24:25.269Z,100.00
2023-02-02T17:29:18.177Z,100.00
2023-02-02T17:34:15.740Z,100.00
2023-02-02T17:39:09.991Z,100.00
2023-02-02T17:44:09.409Z,100.00
2023-02-02T17:49:03.362Z,100.00
2023-02-02T17:53:55.455Z,100.00
2023-02-02T17:58:51.178Z,100.00
2023-02-02T18:03:51.146Z,100.00
2023-02-02T18:08:47.034Z,100.00
2023-02-02T18:13:41.863Z,100.00
2023-02-02T18:18:35.846Z,100.00
2023-02-02T18:23:30.092Z,100.00
2023-02-02T18:28:22.159Z,100.00
2023-02-02T18:33:13.638Z,100.00
2023-02-02T18:38:03.816Z,100.00
2023-02-02T18:42:59.697Z,100.00
2023-02-02T18:47:50.824Z,100.00
2023-02-02T18:52:42.646Z,100.00
2023-02-02T18:57:34.358Z,100.00
2023-02-02T19:02:29.229Z,100.00
2023-02-02T19:07:35.596Z,100.00
2023-02-02T19:12:31.581Z,100.00
2023-02-02T19:17:32.490Z,100.00
2023-02-02T19:22:25.112Z,100.00
2023-02-02T19:27:22.817Z,100.00
2023-02-02T19:32:20.877Z,100.00
2023-02-02T19:37:26.263Z,100.00
2023-02-02T19:42:20.780Z,100.00
2023-02-02T19:47:26.781Z,100.00
2023-02-02T19:52:26.653Z,100.00
2023-02-02T19:57:25.898Z,100.00
2023-02-02T20:02:38.258Z,100.00
2023-02-02T20:07:37.401Z,100.00
2023-02-02T20:12:36.605Z,100.00
2023-02-02T20:17:34.499Z,100.00
2023-02-02T20:22:30.357Z,100.00
2023-02-02T20:27:29.222Z,100.00
2023-02-02T20:32:26.756Z,100.00
2023-02-02T20:37:26.740Z,100.00
2023-02-02T20:42:23.679Z,100.00
2023-02-02T20:47:16.543Z,100.00
2023-02-02T20:52:15.520Z,100.00
2023-02-02T20:57:11.235Z,100.00
2023-02-02T21:02:07.546Z,100.00
2023-02-02T21:07:03.701Z,100.00
2023-02-02T21:11:55.886Z,100.00
2023-02-02T21:16:47.426Z,100.00
2023-02-02T21:21:39.180Z,100.00
2023-02-02T21:26:34.936Z,100.00
2023-02-02T21:31:27.766Z,100.00
2023-02-02T21:36:35.215Z,100.00
2023-02-02T21:41:29.332Z,100.00
2023-02-02T21:46:28.501Z,100.00
2023-02-02T21:51:31.269Z,100.00
2023-02-02T21:56:30.772Z,100.00
2023-02-02T22:01:38.296Z,100.00
2023-02-02T22:06:34.412Z,100.00
2023-02-02T22:11:30.145Z,100.00
2023-02-02T22:16:26.512Z,100.00
2023-02-02T22:21:21.221Z,100.00
2023-02-02T22:26:40.921Z,100.00
2023-02-02T22:31:39.528Z,100.00
2023-02-02T22:36:35.553Z,100.00
2023-02-02T22:41:28.142Z,100.00
2023-02-02T22:46:19.353Z,100.00
2023-02-02T22:51:13.925Z,100.00
2023-02-02T22:56:13.528Z,100.00
2023-02-02T23:01:06.677Z,100.00
2023-02-02T23:05:57.509Z,100.00
2023-02-02T23:10:50.780Z,100.00
2023-02-02T23:15:43.410Z,100.00
2023-02-02T23:20:38.426Z,100.00
2023-02-02T23:25:32.933Z,100.00
2023-02-02T23:30:27.171Z,100.00
2023-02-02T23:35:22.800Z,100.00
2023-02-02T23:40:15.482Z,100.00
2023-02-02T23:45:13.210Z,100.00
2023-02-02T23:50:11.857Z,100.00
2023-02-02T23:55:03.963Z,100.00
2023-02-02T23:59:54.522Z,100.00
